Westchester, IL

4:32 AM CST on December 22, 2014 (GMT -0600)
Mr. Hammes's Weather | Change Station
CLOSE
Current Station
Personal Weather Station
Location: Westchester, IL
Elevation: 641 ft
Nearby Weather Stations

Elev 641 ft 41.85 °N, 87.87 °W | Updated 18 seconds ago

Mostly Cloudy
Mostly Cloudy
30.6 °F
Feels Like 31 °F
N
2.3
Wind Variable Wind from SW
Gusts 0.0 mph

Today
High -- | Low -- °F
--% Chance of Precip.
Yesterday
High -- | Low -- °F
Precip. -- in
7:16 AM 4:24 PM
New Moon, 0% visible
Pressure 30.00 in
Visibility 10.0 miles
Clouds Scattered Clouds 20000 ft
Windchill 31 °F
Dew Point 24 °F
Humidity 75%
Rainfall 0.00 in
Snow Depth Not available.
UV 0 out of 12
Pollen .10 out of 12
Air Quality Not available.
Flu Activity Not available.
METAR KMDW 220953Z 13007KT 10SM SCT200 00/M03 A2997 RMK AO2 SLP158 T00001033 $

More Conditions Fewer Conditions

Pressure 30.00 in
Visibility 10.0 miles
Clouds Scattered Clouds 20000 ft
Windchill 31 °F
Dew Point 24 °F
Humidity 75%
Rainfall 0.00 in
Snow Depth Not available.
UV 0 out of 12
Pollen .10 out of 12
Air Quality Not available.
Flu Activity Not available.
METAR KMDW 220953Z 13007KT 10SM SCT200 00/M03 A2997 RMK AO2 SLP158 T00001033 $

More Conditions Fewer Conditions

10-Day Weather Forecast

Almanac

Astronomy

Dec. 22, 2014 Rise Set
Actual Time
Civil Twilight
Nautical Twilight
Astronomical Twilight
Moon
Length of Visible Light
Length of Day
Tomorrow will be .
, % of the Moon is Illuminated

Today's Extremes

State Highs State Lows

Community

WunderPhotos

Upload Photos

1,779,583 photos uploaded!

WunderBlogs® & News

Nearby

Air Quality

  Air Quality AQ Index Pollutant
Not available.

Snow Depth

Station Depth Elevation

Earthquake Activity

City Distance Mag. Time & Date
Minimum magnitude displayed is 2.5.

Coastal Water Temperatures

Place Temperature

Nearby Weather Stations